createdAt,value
2019-05-21T00:01:46.934Z,1.60
2019-05-21T00:04:27.315Z,1.20
2019-05-21T00:06:46.092Z,1.30
2019-05-21T00:09:14.571Z,1.50
2019-05-21T00:11:42.996Z,1.17
2019-05-21T00:14:11.571Z,1.63
2019-05-21T00:16:41.728Z,1.20
2019-05-21T00:19:10.113Z,1.20
2019-05-21T00:21:38.587Z,1.00
2019-05-21T00:24:07.150Z,1.20
2019-05-21T00:26:35.596Z,1.40
2019-05-21T00:29:59.294Z,1.13
2019-05-21T00:33:22.948Z,1.17
2019-05-21T00:36:48.312Z,1.40
2019-05-21T00:40:11.580Z,1.60
2019-05-21T00:42:43.864Z,1.07
2019-05-21T00:45:12.674Z,0.93
2019-05-21T00:47:41.079Z,0.83
2019-05-21T00:50:10.077Z,1.50
2019-05-21T00:52:38.569Z,1.10
2019-05-21T00:55:07.050Z,1.27
2019-05-21T00:57:36.132Z,1.57
2019-05-21T01:00:06.001Z,1.30
2019-05-21T01:02:35.989Z,1.10
2019-05-21T01:05:04.593Z,1.43
2019-05-21T01:07:32.969Z,1.17
2019-05-21T01:10:01.568Z,1.30
2019-05-21T01:12:30.157Z,1.27
2019-05-21T01:14:58.538Z,1.37
2019-05-21T01:17:26.930Z,1.40
2019-05-21T01:19:55.315Z,1.10
2019-05-21T01:22:23.845Z,1.60
2019-05-21T01:24:52.331Z,1.30
2019-05-21T01:27:20.804Z,1.60
2019-05-21T01:29:49.349Z,1.30
2019-05-21T01:32:17.724Z,1.60
2019-05-21T01:34:46.334Z,1.30
2019-05-21T01:37:14.812Z,1.30
2019-05-21T01:39:44.310Z,1.20
2019-05-21T01:42:12.766Z,1.17
2019-05-21T01:44:41.248Z,1.43
2019-05-21T01:47:09.639Z,1.27
2019-05-21T01:49:38.041Z,1.30
2019-05-21T01:52:08.212Z,1.40
2019-05-21T01:54:36.576Z,1.60
2019-05-21T01:57:04.989Z,1.40
2019-05-21T01:59:33.496Z,1.00
2019-05-21T02:02:01.967Z,1.20
2019-05-21T02:04:30.521Z,1.30
2019-05-21T02:06:59.470Z,1.30
2019-05-21T02:09:27.959Z,1.43
2019-05-21T02:11:56.451Z,1.47
2019-05-21T02:14:24.924Z,1.40
2019-05-21T02:16:53.929Z,1.50
2019-05-21T02:19:22.401Z,1.63
2019-05-21T02:21:50.759Z,1.50
2019-05-21T02:24:19.143Z,1.27
2019-05-21T02:26:47.725Z,1.33
2019-05-21T02:29:16.118Z,1.80
2019-05-21T02:31:44.629Z,1.33
2019-05-21T02:34:13.287Z,1.50
2019-05-21T02:36:41.678Z,2.00
2019-05-21T02:39:10.378Z,1.50
2019-05-21T02:41:38.847Z,1.70
2019-05-21T02:44:07.313Z,1.77
2019-05-21T02:46:35.798Z,2.10
2019-05-21T02:49:04.284Z,1.50
2019-05-21T02:51:32.873Z,1.50
2019-05-21T02:54:01.366Z,1.60
2019-05-21T02:56:29.787Z,1.13
2019-05-21T02:58:59.961Z,1.80
2019-05-21T03:01:43.658Z,1.53
2019-05-21T03:04:12.224Z,1.30
2019-05-21T03:06:42.524Z,1.70
2019-05-21T03:09:10.911Z,1.60
2019-05-21T03:11:39.286Z,1.83
2019-05-21T03:14:07.785Z,1.50
2019-05-21T03:16:37.948Z,1.40
2019-05-21T03:19:06.534Z,1.30
2019-05-21T03:21:35.005Z,1.20
2019-05-21T03:24:03.675Z,1.43
2019-05-21T03:26:32.026Z,1.80
2019-05-21T03:29:00.422Z,1.43
2019-05-21T03:31:28.911Z,1.60
2019-05-21T03:33:57.312Z,2.73
2019-05-21T03:36:33.415Z,1.57
2019-05-21T03:38:56.749Z,1.63
2019-05-21T03:41:25.148Z,1.80
2019-05-21T03:43:55.326Z,1.90
2019-05-21T03:46:23.708Z,1.70
2019-05-21T03:48:53.494Z,2.07
2019-05-21T03:51:21.887Z,2.20
2019-05-21T03:53:51.273Z,2.50
2019-05-21T03:56:21.435Z,2.30
2019-05-21T03:58:51.322Z,2.50
2019-05-21T04:01:21.490Z,2.50
2019-05-21T04:03:50.541Z,2.37
2019-05-21T04:06:18.967Z,2.43
2019-05-21T04:08:47.392Z,2.60
2019-05-21T04:11:16.091Z,2.43
2019-05-21T04:13:45.756Z,2.30
2019-05-21T04:16:21.967Z,1.80
2019-05-21T04:18:54.865Z,2.60
2019-05-21T04:21:24.450Z,2.40
2019-05-21T04:23:54.316Z,2.60
2019-05-21T04:26:22.811Z,2.87
2019-05-21T04:28:51.464Z,3.80
2019-05-21T04:31:21.592Z,3.27
2019-05-21T04:33:50.914Z,2.80
2019-05-21T04:36:19.492Z,3.03
2019-05-21T04:38:47.981Z,2.97
2019-05-21T04:41:16.464Z,3.13
2019-05-21T04:43:45.161Z,3.20
2019-05-21T04:46:15.550Z,3.20
2019-05-21T04:48:44.134Z,3.40
2019-05-21T04:51:13.903Z,3.10
2019-05-21T04:53:42.917Z,3.40
2019-05-21T04:56:11.414Z,4.00
2019-05-21T04:58:40.005Z,2.53
2019-05-21T05:01:08.797Z,3.03
2019-05-21T05:03:37.209Z,3.00
2019-05-21T05:06:05.700Z,3.30
2019-05-21T05:08:34.967Z,3.50
2019-05-21T05:11:03.470Z,3.37
2019-05-21T05:13:32.738Z,3.67
2019-05-21T05:16:04.287Z,3.10
2019-05-21T05:18:33.318Z,2.63
2019-05-21T05:21:01.726Z,3.13
2019-05-21T05:23:30.317Z,3.40
2019-05-21T05:25:58.804Z,3.30
2019-05-21T05:28:33.297Z,3.00
2019-05-21T05:31:01.781Z,2.83
2019-05-21T05:33:30.580Z,3.30
2019-05-21T05:35:59.046Z,3.20
2019-05-21T05:38:27.627Z,3.10
2019-05-21T05:40:56.311Z,2.60
2019-05-21T05:43:25.235Z,3.90
2019-05-21T05:45:53.724Z,3.43
2019-05-21T05:48:22.945Z,3.17
2019-05-21T05:50:53.952Z,3.43
2019-05-21T05:53:22.707Z,3.17
2019-05-21T05:55:51.207Z,3.37
2019-05-21T05:58:20.894Z,2.03
2019-05-21T06:00:50.870Z,2.60
2019-05-21T06:03:19.301Z,3.33
2019-05-21T06:05:48.508Z,3.10
2019-05-21T06:08:17.096Z,2.47
2019-05-21T06:10:45.679Z,2.63
2019-05-21T06:13:15.073Z,2.20
2019-05-21T06:15:44.132Z,2.30
2019-05-21T06:18:12.820Z,2.40
2019-05-21T06:20:41.391Z,2.67
2019-05-21T06:23:10.439Z,3.20
2019-05-21T06:25:38.929Z,2.87
2019-05-21T06:28:08.976Z,3.07
2019-05-21T06:30:37.766Z,2.43
2019-05-21T06:33:06.186Z,2.17
2019-05-21T06:35:34.975Z,2.03
2019-05-21T06:38:16.651Z,1.90
2019-05-21T06:40:38.220Z,1.63
2019-05-21T06:43:05.198Z,2.20
2019-05-21T06:45:34.002Z,1.80
2019-05-21T06:48:02.691Z,1.77
2019-05-21T06:50:31.169Z,1.27
2019-05-21T06:52:59.773Z,1.30
2019-05-21T06:55:29.962Z,1.20
2019-05-21T06:57:58.736Z,1.10
2019-05-21T07:00:27.520Z,1.20
2019-05-21T07:02:56.115Z,1.27
2019-05-21T07:05:24.902Z,2.33
2019-05-21T07:07:53.820Z,1.43
2019-05-21T07:10:23.086Z,1.20
2019-05-21T07:12:51.938Z,1.20
2019-05-21T07:15:20.676Z,1.00
2019-05-21T07:17:50.945Z,1.37
2019-05-21T07:20:19.654Z,1.20
2019-05-21T07:22:48.445Z,1.10
2019-05-21T07:25:17.331Z,1.10
2019-05-21T07:27:45.695Z,1.10
2019-05-21T07:30:14.410Z,1.60
2019-05-21T07:32:43.974Z,1.93
2019-05-21T07:35:12.475Z,1.10
2019-05-21T07:37:43.588Z,1.07
2019-05-21T07:40:14.300Z,1.60
2019-05-21T07:42:42.888Z,1.10
2019-05-21T07:45:12.187Z,1.20
2019-05-21T07:47:40.669Z,1.30
2019-05-21T07:50:09.267Z,1.17
2019-05-21T07:52:37.968Z,1.20
2019-05-21T07:55:06.673Z,1.23
2019-05-21T07:57:35.360Z,1.00
2019-05-21T08:00:05.133Z,1.10
2019-05-21T08:02:35.389Z,1.20
2019-05-21T08:05:04.749Z,1.40
2019-05-21T08:07:33.506Z,1.40
2019-05-21T08:10:05.437Z,1.10
2019-05-21T08:12:39.397Z,0.87
2019-05-21T08:15:04.800Z,1.20
2019-05-21T08:17:33.269Z,1.00
2019-05-21T08:20:09.144Z,1.00
2019-05-21T08:22:32.595Z,0.80
2019-05-21T08:25:01.481Z,1.10
2019-05-21T08:27:30.053Z,1.20
2019-05-21T08:29:58.563Z,1.30
2019-05-21T08:32:27.149Z,1.00
2019-05-21T08:34:55.629Z,1.33
2019-05-21T08:37:24.217Z,1.50
2019-05-21T08:39:52.687Z,1.13
2019-05-21T08:42:21.320Z,1.13
2019-05-21T08:44:49.785Z,0.90
2019-05-21T08:47:19.968Z,0.83
2019-05-21T08:49:48.656Z,1.00
2019-05-21T08:52:17.157Z,1.07
2019-05-21T08:54:50.529Z,0.97
2019-05-21T08:57:19.729Z,1.10
2019-05-21T08:59:48.602Z,1.07
2019-05-21T09:02:17.448Z,0.83
2019-05-21T09:04:47.030Z,0.80
2019-05-21T09:07:15.868Z,1.03
2019-05-21T09:09:50.065Z,1.27
2019-05-21T09:12:14.816Z,1.10
2019-05-21T09:14:43.404Z,0.87
2019-05-21T09:17:11.874Z,0.80
2019-05-21T09:19:40.371Z,0.70
2019-05-21T09:22:08.844Z,1.70
2019-05-21T09:24:37.245Z,1.40
2019-05-21T09:27:05.734Z,1.20
2019-05-21T09:29:34.431Z,1.27
2019-05-21T09:32:04.810Z,1.10
2019-05-21T09:34:47.348Z,1.03
2019-05-21T09:37:18.466Z,1.70
2019-05-21T09:39:34.733Z,1.03
2019-05-21T09:42:03.230Z,1.20
2019-05-21T09:44:31.796Z,1.47
2019-05-21T09:47:00.248Z,0.80
2019-05-21T09:49:28.784Z,1.30
2019-05-21T09:51:57.175Z,1.17
2019-05-21T09:54:25.590Z,0.90
2019-05-21T09:56:54.074Z,1.00
2019-05-21T09:59:48.852Z,1.77
2019-05-21T10:02:20.585Z,1.40
2019-05-21T10:04:48.951Z,1.00
2019-05-21T10:07:18.497Z,1.40
2019-05-21T10:09:47.344Z,1.60
2019-05-21T10:12:15.845Z,1.10
2019-05-21T10:14:44.741Z,1.00
2019-05-21T10:17:13.324Z,0.60
2019-05-21T10:19:42.009Z,1.20
2019-05-21T10:22:10.943Z,0.80
2019-05-21T10:24:39.505Z,1.50
2019-05-21T10:27:07.993Z,0.90
2019-05-21T10:29:36.402Z,0.83
2019-05-21T10:32:05.022Z,1.10
2019-05-21T10:34:33.395Z,1.57
2019-05-21T10:37:02.983Z,1.80
2019-05-21T10:39:31.645Z,1.00
2019-05-21T10:42:02.335Z,0.87
2019-05-21T10:44:30.821Z,1.00
2019-05-21T10:47:01.009Z,1.33
2019-05-21T10:49:29.394Z,1.00
2019-05-21T10:51:57.891Z,0.90
2019-05-21T10:54:26.556Z,0.93
2019-05-21T10:56:54.917Z,1.10
2019-05-21T10:59:23.502Z,1.23
2019-05-21T11:02:17.354Z,0.70
2019-05-21T11:04:51.003Z,0.60
2019-05-21T11:07:20.262Z,0.90
2019-05-21T11:09:48.806Z,1.00
2019-05-21T11:12:17.583Z,0.70
2019-05-21T11:14:45.998Z,1.00
2019-05-21T11:17:15.286Z,0.70
2019-05-21T11:19:43.657Z,0.97
2019-05-21T11:22:12.132Z,0.60
2019-05-21T11:24:40.513Z,0.50
2019-05-21T11:27:09.052Z,0.70
2019-05-21T11:29:37.815Z,0.80
2019-05-21T11:32:06.389Z,1.30
2019-05-21T11:34:34.890Z,0.80
2019-05-21T11:37:03.292Z,0.60
2019-05-21T11:39:33.263Z,0.70
2019-05-21T11:42:01.719Z,0.90
2019-05-21T11:44:30.213Z,0.70
2019-05-21T11:46:59.386Z,0.80
2019-05-21T11:49:27.812Z,1.67
2019-05-21T11:51:56.180Z,1.27
2019-05-21T11:54:25.162Z,1.00
2019-05-21T11:56:53.546Z,0.97
2019-05-21T11:59:21.925Z,0.70
2019-05-21T12:01:50.523Z,0.70
2019-05-21T12:04:19.074Z,0.70
2019-05-21T12:06:48.086Z,0.70
2019-05-21T12:09:17.060Z,0.50
2019-05-21T12:11:45.437Z,0.70
2019-05-21T12:14:13.968Z,0.70
2019-05-21T12:16:42.452Z,0.90
2019-05-21T12:19:10.886Z,0.70
2019-05-21T12:21:39.338Z,0.70
2019-05-21T12:24:09.200Z,0.80
2019-05-21T12:26:37.894Z,0.77
2019-05-21T12:29:07.193Z,0.80
2019-05-21T12:31:35.569Z,1.10
2019-05-21T12:34:04.238Z,1.00
2019-05-21T12:36:32.740Z,0.83
2019-05-21T12:39:13.613Z,0.73
2019-05-21T12:41:31.599Z,1.20
2019-05-21T12:44:00.290Z,1.10
2019-05-21T12:46:28.689Z,0.93
2019-05-21T12:48:58.023Z,1.00
2019-05-21T12:51:27.123Z,0.70
2019-05-21T12:53:55.619Z,0.90
2019-05-21T12:56:24.482Z,0.70
2019-05-21T12:58:52.945Z,0.80
2019-05-21T13:01:21.719Z,0.60
2019-05-21T13:03:50.138Z,0.60
2019-05-21T13:06:18.522Z,1.50
2019-05-21T13:08:46.917Z,0.93
2019-05-21T13:11:15.399Z,0.87
2019-05-21T13:13:44.086Z,0.70
2019-05-21T13:16:12.564Z,1.00
2019-05-21T13:18:41.047Z,0.70
2019-05-21T13:21:09.554Z,1.27
2019-05-21T13:23:38.181Z,1.10
2019-05-21T13:26:08.628Z,1.17
2019-05-21T13:28:37.955Z,0.90
2019-05-21T13:31:07.635Z,1.10
2019-05-21T13:33:36.062Z,0.90
2019-05-21T13:36:04.705Z,0.80
2019-05-21T13:38:33.268Z,1.30
2019-05-21T13:41:02.543Z,1.00
2019-05-21T13:43:30.961Z,1.00
2019-05-21T13:45:59.348Z,1.00
2019-05-21T13:48:27.956Z,1.13
2019-05-21T13:50:56.468Z,1.30
2019-05-21T13:53:24.954Z,0.93
2019-05-21T13:55:53.356Z,1.03
2019-05-21T13:58:21.862Z,1.10
2019-05-21T14:00:53.546Z,1.57
2019-05-21T14:03:22.215Z,1.10
2019-05-21T14:05:51.395Z,1.87
2019-05-21T14:08:19.908Z,1.00
2019-05-21T14:10:48.280Z,3.80
2019-05-21T14:13:16.661Z,5.00
2019-05-21T14:15:45.159Z,2.77
2019-05-21T14:18:13.513Z,1.33
2019-05-21T14:20:41.999Z,4.80
2019-05-21T14:23:10.402Z,4.43
2019-05-21T14:25:38.786Z,4.27
2019-05-21T14:28:07.251Z,1.20
2019-05-21T14:30:35.665Z,3.00
2019-05-21T14:33:04.309Z,1.73
2019-05-21T14:35:32.813Z,2.40
2019-05-21T14:38:02.381Z,2.00
2019-05-21T14:40:32.894Z,1.40
2019-05-21T14:43:01.546Z,1.60
2019-05-21T14:45:33.934Z,1.57
2019-05-21T14:48:01.051Z,2.00
2019-05-21T14:50:29.548Z,1.60
2019-05-21T14:52:58.216Z,1.07
2019-05-21T14:55:26.593Z,1.50
2019-05-21T14:57:58.582Z,1.23
2019-05-21T15:00:30.697Z,1.80
2019-05-21T15:02:59.124Z,1.73
2019-05-21T15:05:27.706Z,1.33
2019-05-21T15:07:56.086Z,2.10
2019-05-21T15:10:24.582Z,2.77
2019-05-21T15:12:54.801Z,1.50
2019-05-21T15:15:23.189Z,1.10
2019-05-21T15:17:51.567Z,1.00
2019-05-21T15:20:33.384Z,1.37
2019-05-21T15:23:01.868Z,1.60
2019-05-21T15:25:31.109Z,1.07
2019-05-21T15:28:00.080Z,0.93
2019-05-21T15:30:28.577Z,1.43
2019-05-21T15:32:58.173Z,1.10
2019-05-21T15:35:26.561Z,0.90
2019-05-21T15:37:55.144Z,1.30
2019-05-21T15:40:23.729Z,1.63
2019-05-21T15:42:53.796Z,1.87
2019-05-21T15:45:23.247Z,1.67
2019-05-21T15:47:51.950Z,1.40
2019-05-21T15:50:20.423Z,4.80
2019-05-21T15:52:49.035Z,1.13
2019-05-21T15:55:17.714Z,1.00
2019-05-21T15:57:46.913Z,2.40
2019-05-21T16:00:16.089Z,1.97
2019-05-21T16:02:44.616Z,0.87
2019-05-21T16:05:14.087Z,1.33
2019-05-21T16:07:42.668Z,1.30
2019-05-21T16:10:13.568Z,3.20
2019-05-21T16:12:43.888Z,2.30
2019-05-21T16:15:14.340Z,1.60
2019-05-21T16:17:42.819Z,1.90
2019-05-21T16:20:12.450Z,5.57
2019-05-21T16:22:41.070Z,1.60
2019-05-21T16:25:10.105Z,1.13
2019-05-21T16:27:38.506Z,1.20
2019-05-21T16:30:07.715Z,1.13
2019-05-21T16:32:37.335Z,1.13
2019-05-21T16:35:06.879Z,1.40
2019-05-21T16:37:36.400Z,1.40
2019-05-21T16:40:05.813Z,1.20
2019-05-21T16:42:34.217Z,1.23
2019-05-21T16:45:02.877Z,1.47
2019-05-21T16:47:44.546Z,1.33
2019-05-21T16:50:01.667Z,1.23
2019-05-21T16:52:30.499Z,1.40
2019-05-21T16:54:58.987Z,1.20
2019-05-21T16:57:27.354Z,0.80
2019-05-21T16:59:55.905Z,0.80
2019-05-21T17:02:24.419Z,1.20
2019-05-21T17:04:52.790Z,0.97
2019-05-21T17:07:21.274Z,1.20
2019-05-21T17:09:49.640Z,1.00
2019-05-21T17:12:18.032Z,1.40
2019-05-21T17:14:49.846Z,1.33
2019-05-21T17:17:16.916Z,1.83
2019-05-21T17:19:45.789Z,3.57
2019-05-21T17:22:14.550Z,1.30
2019-05-21T17:24:43.031Z,2.97
2019-05-21T17:27:11.614Z,1.80
2019-05-21T17:29:40.009Z,2.50
2019-05-21T17:32:08.480Z,2.90
2019-05-21T17:34:36.872Z,2.73
2019-05-21T17:37:05.461Z,2.20
2019-05-21T17:39:34.068Z,2.00
2019-05-21T17:42:14.666Z,2.30
2019-05-21T17:44:33.636Z,2.10
2019-05-21T17:47:02.729Z,1.80
2019-05-21T17:49:31.124Z,2.10
2019-05-21T17:51:59.844Z,2.57
2019-05-21T17:54:28.321Z,1.97
2019-05-21T17:56:56.730Z,2.03
2019-05-21T17:59:25.249Z,2.60
2019-05-21T18:01:54.220Z,1.90
2019-05-21T18:04:23.036Z,1.60
2019-05-21T18:06:52.506Z,2.00
2019-05-21T18:09:22.923Z,2.03
2019-05-21T18:11:51.415Z,2.30
2019-05-21T18:14:20.345Z,3.00
2019-05-21T18:16:48.934Z,3.07
2019-05-21T18:19:17.947Z,3.20
2019-05-21T18:21:47.534Z,3.23
2019-05-21T18:24:16.200Z,2.50
2019-05-21T18:26:44.634Z,2.00
2019-05-21T18:29:13.111Z,1.80
2019-05-21T18:31:42.334Z,2.10
2019-05-21T18:34:11.191Z,1.63
2019-05-21T18:36:39.578Z,1.73
2019-05-21T18:39:07.972Z,2.20
2019-05-21T18:41:36.493Z,2.10
2019-05-21T18:44:05.273Z,1.97
2019-05-21T18:46:33.642Z,1.77
2019-05-21T18:49:03.219Z,1.57
2019-05-21T18:51:31.610Z,1.90
2019-05-21T18:54:00.114Z,2.30
2019-05-21T18:56:28.814Z,2.13
2019-05-21T18:59:00.983Z,1.93
2019-05-21T19:01:29.367Z,2.17
2019-05-21T19:03:58.095Z,1.50
2019-05-21T19:06:26.686Z,1.70
2019-05-21T19:08:55.227Z,1.60
2019-05-21T19:11:24.118Z,1.83
2019-05-21T19:13:52.617Z,2.40
2019-05-21T19:16:21.636Z,1.60
2019-05-21T19:18:50.158Z,2.37
2019-05-21T19:21:19.185Z,2.40
2019-05-21T19:23:47.999Z,2.70
2019-05-21T19:26:16.539Z,3.00
2019-05-21T19:28:48.900Z,2.67
2019-05-21T19:31:17.411Z,3.10
2019-05-21T19:33:46.032Z,3.07
2019-05-21T19:36:14.610Z,2.70
2019-05-21T19:38:43.137Z,2.77
2019-05-21T19:41:11.725Z,2.53
2019-05-21T19:43:40.413Z,3.17
2019-05-21T19:46:10.677Z,3.20
2019-05-21T19:48:39.162Z,3.90
2019-05-21T19:51:07.720Z,3.30
2019-05-21T19:53:36.184Z,2.63
2019-05-21T19:56:04.569Z,3.70
2019-05-21T19:58:33.700Z,3.20
2019-05-21T20:01:03.778Z,3.43
2019-05-21T20:03:32.471Z,3.17
2019-05-21T20:06:02.055Z,3.70
2019-05-21T20:08:30.851Z,4.10
2019-05-21T20:10:59.540Z,4.03
2019-05-21T20:13:32.412Z,3.60
2019-05-21T20:16:00.465Z,3.47
2019-05-21T20:18:28.884Z,4.00
2019-05-21T20:20:58.475Z,3.83
2019-05-21T20:23:27.023Z,3.80
2019-05-21T20:25:57.119Z,6.50
2019-05-21T20:28:25.918Z,4.37
2019-05-21T20:30:55.272Z,5.23
2019-05-21T20:33:24.187Z,6.20
2019-05-21T20:35:55.196Z,5.70
2019-05-21T20:38:25.010Z,6.90
2019-05-21T20:40:54.219Z,6.23
2019-05-21T20:43:22.633Z,7.30
2019-05-21T20:45:52.254Z,7.67
2019-05-21T20:48:25.481Z,6.87
2019-05-21T20:50:54.153Z,7.90
2019-05-21T20:53:22.846Z,8.37
2019-05-21T20:55:51.354Z,7.23
2019-05-21T20:58:20.094Z,7.23
2019-05-21T21:00:56.107Z,6.17
2019-05-21T21:03:24.752Z,6.43
2019-05-21T21:05:54.018Z,6.20
2019-05-21T21:08:27.510Z,5.30
2019-05-21T21:10:55.095Z,5.40
2019-05-21T21:13:24.373Z,4.90
2019-05-21T21:15:52.765Z,4.90
2019-05-21T21:18:22.092Z,4.90
2019-05-21T21:20:50.484Z,5.63
2019-05-21T21:23:22.036Z,5.00
2019-05-21T21:25:51.014Z,4.80
2019-05-21T21:28:20.302Z,5.60
2019-05-21T21:30:49.368Z,5.63
2019-05-21T21:33:18.393Z,5.27
2019-05-21T21:35:46.865Z,6.13
2019-05-21T21:38:18.721Z,5.13
2019-05-21T21:40:47.599Z,5.53
2019-05-21T21:43:16.091Z,5.60
2019-05-21T21:45:44.980Z,5.63
2019-05-21T21:48:14.237Z,4.70
2019-05-21T21:50:42.994Z,5.33
2019-05-21T21:53:12.960Z,5.70
2019-05-21T21:55:41.473Z,6.13
2019-05-21T21:58:10.137Z,5.30
2019-05-21T22:01:40.407Z,6.10
2019-05-21T22:04:10.864Z,5.37
2019-05-21T22:06:43.056Z,6.67
2019-05-21T22:09:18.844Z,5.53
2019-05-21T22:11:47.433Z,5.23
2019-05-21T22:14:15.974Z,4.43
2019-05-21T22:16:45.155Z,4.27
2019-05-21T22:19:15.350Z,4.50
2019-05-21T22:21:44.132Z,4.03
2019-05-21T22:24:13.102Z,3.53
2019-05-21T22:26:41.685Z,3.43
2019-05-21T22:29:10.265Z,4.20
2019-05-21T22:31:39.614Z,4.00
2019-05-21T22:34:08.455Z,4.43
2019-05-21T22:36:36.924Z,4.17
2019-05-21T22:39:10.587Z,5.13
2019-05-21T22:41:39.063Z,4.13
2019-05-21T22:44:08.019Z,3.30
2019-05-21T22:46:36.445Z,3.40
2019-05-21T22:49:06.675Z,3.40
2019-05-21T22:51:35.212Z,4.43
2019-05-21T22:54:03.650Z,3.87
2019-05-21T22:56:33.832Z,3.90
2019-05-21T22:59:09.250Z,3.50
2019-05-21T23:01:38.146Z,4.03
2019-05-21T23:04:07.193Z,3.20
2019-05-21T23:06:35.594Z,4.20
2019-05-21T23:09:06.285Z,4.40
2019-05-21T23:11:34.779Z,3.80
2019-05-21T23:14:03.615Z,3.23
2019-05-21T23:16:32.566Z,4.03
2019-05-21T23:19:01.248Z,4.30
2019-05-21T23:21:30.635Z,3.90
2019-05-21T23:23:59.489Z,3.90
2019-05-21T23:26:28.558Z,3.50
2019-05-21T23:28:59.353Z,3.70
2019-05-21T23:31:30.815Z,3.50
2019-05-21T23:33:59.915Z,4.20
2019-05-21T23:36:28.370Z,3.90
2019-05-21T23:38:56.866Z,4.10
2019-05-21T23:41:26.259Z,4.27
2019-05-21T23:43:54.909Z,3.67
2019-05-21T23:46:24.008Z,3.83
2019-05-21T23:48:52.672Z,4.23
2019-05-21T23:51:21.579Z,3.40
2019-05-21T23:53:50.124Z,4.00
2019-05-21T23:56:18.816Z,4.00
2019-05-21T23:58:48.340Z,4.30
